Evidence Modiba

Scout - Mamelodi Sundowns
4 Dez 2028
Montag
Verarbeitung

Persönlichkeit

Anpassungsfähigkeit (15) Ehrgeiz (4) Kontroverse (7) Loyalität (19) Druck (1) Professionalität (15) Fairness (19) Temperament (4)

Profil

Trainerstil Demokratisch
Lizenz Kontinentale C
Entschlossenheit 6
Menschenführung 9
Motivation 11
Disziplin 10
Arbeitszufriedenheit
100%
Ermüdung
0%
Rolle Scout
Gehalt 32.9K p/W
Vertrag 14.03.2029

Leistung

Verhalten Gut
Trainingseffektivität
41%
Spielerentwicklung
60%
Verletzungsprävention
35%
Taktische Umsetzung
30%

Letzte Ereignisse

Empfahl ein Transferziel jetzt
Spieler begutachtet jetzt
Spieler begutachtet jetzt
Spiel beobachtet jetzt
Spiel beobachtet jetzt
Spiel beobachtet jetzt
Spiel beobachtet jetzt
Spiel beobachtet jetzt

Aktuell beobachtet

156
Spieler Verein Status Fähigkeit Vertrauen Beobachtet Zuletzt beobachtet Letzte Stimme
Matías Rosales Sarmiento Aktiv 115 / 121 40% 2 02.12.2028 -
Alex Luna Instituto Aktiv 139 / 129 40% 7 02.12.2028 -
Lautaro Vargas Unión de Santa Fe Aktiv 119 / 120 40% 4 30.11.2028 -
Jeremías Merlo Gimnasia La Plata Aktiv 128 / 126 40% 2 30.11.2028 -
Simon Ramabu Polokwane City Aktiv 124 / 124 42% 1 / 1m 29.11.2028 -
Ethan Williams Peterborough United Aktiv 120 / 129 40% 4 28.11.2028 -
George Hall Port Vale Aktiv 136 / 131 40% 2 28.11.2028 -
Luka Tsulukidze Dinamo Batumi Aktiv 113 / 122 40% 7 27.11.2028 -
Mateo Seoane Gimnasia La Plata Aktiv 131 / 122 40% 1 27.11.2028 -
Juan Velázquez Belgrano Aktiv 125 / 129 40% 6 26.11.2028 -
Amin Boudri Los Angeles Football Club Aktiv 136 / 132 40% 3 20.11.2028 -
Jonathan De Irastorza Independiente Aktiv 130 / 127 40% 4 13.11.2028 -
Iñaki Larthirigoyen San Telmo Aktiv 128 / 124 40% 5 13.11.2028 -
Maximiliano Meléndez Chacarita Juniors Aktiv 115 / 122 40% 1 11.11.2028 -
Tomás Ferreyra Defensores Unidos Aktiv 111 / 110 40% 3 09.11.2028 -
Alfie Devine Preston Aktiv 125 / 127 40% 1 09.11.2028 -
Franco Minerva Platense Aktiv 118 / 121 40% 2 05.11.2028 -
Tomás Porra Barracas Central Aktiv 111 / 119 40% 1 05.11.2028 -
Lisandro Piñero Banfield Aktiv 123 / 126 40% 2 02.11.2028 -
Facundo Gulli San Lorenzo Aktiv 125 / 121 40% 1 02.11.2028 -
Tomás O'Connor Gimnasia y Esgrima Aktiv 133 / 127 40% 5 31.10.2028 -
Cesar Rubio Envigado Aktiv 125 / 118 40% 2 29.10.2028 -
Tobías Leiva Estudiantes Aktiv 111 / 112 40% 5 19.10.2028 -
Mohamadou Kanté Crawley Town Aktiv 119 / 124 40% 1 19.10.2028 -
Puso Dithejane Chicago Fire Aktiv 127 / 117 40% 6 18.10.2028 -
Thiago Lauro Morón Aktiv 113 / 114 40% 2 18.10.2028 -
Luke Harris Bradford City Aktiv 127 / 126 40% 1 18.10.2028 -
Lukas Kelly-Heald Wellington Phoenix Aktiv 109 / 122 40% 2 14.10.2028 -
David Martínez Los Angeles Football Club Aktiv 118 / 125 40% 2 14.10.2028 -
Oliver Arblaster Sheffield United Aktiv 134 / 137 40% 2 12.10.2028 -
Lucas Gómez Argentinos Juniors Aktiv 120 / 123 40% 1 07.10.2028 -
Dylan Aquino Aldosivi Aktiv 128 / 136 40% 3 06.10.2028 -
Ignacio Perruzzi San Lorenzo Aktiv 132 / 126 40% 1 06.10.2028 -
Alan Morinigo Olimpia Aktiv 107 / 122 40% 2 01.10.2028 -
Malik Mothersille Stockport County Aktiv 133 / 120 40% 3 26.09.2028 -
Lucas Palavecino Banfield Aktiv 126 / 126 40% 1 26.09.2028 -
Aidomo Emakhu Oxford United Aktiv 135 / 134 40% 3 24.09.2028 -
Nicolás Barros Schelotto Gimnasia La Plata Aktiv 123 / 124 40% 4 23.09.2028 -
Rocco Vata Watford Aktiv 122 / 133 40% 3 21.09.2028 -
Lionel Verde Unión de Santa Fe Aktiv 123 / 128 40% 3 21.09.2028 -
Haine Eames Brisbane Roar Aktiv 122 / 128 40% 2 20.09.2028 -
Luis Ángel Díaz Independiente Rivadavia Aktiv 125 / 121 40% 2 20.09.2028 -
Franco González Penarol Aktiv 115 / 114 40% 2 12.09.2028 -
Leandro Mamut Gimnasia La Plata Aktiv 115 / 121 40% 1 12.09.2028 -
Harry Gray Harrogate Town Aktiv 133 / 145 40% 1 08.09.2028 -
Adolfo Reynaga Platinum Stars Aktiv 76 / 79 30% 1 / 1m 06.09.2028 -
Evidence Mokoena Platinum Stars Aktiv 64 / 69 30% 1 / 1m 06.09.2028 -
Bantu Chingi University of Pretoria Aktiv 98 / 98 30% 1 / 1m 06.09.2028 -
Mathis Servais Millwall Aktiv 132 / 134 40% 1 05.09.2028 -
Sindre Walle Egeli Udinese Aktiv 136 / 145 40% 2 28.08.2028 -
Zian Flemming Ipswich Town Aktiv 150 / 146 40% 1 28.08.2028 -
Toni Fruk Talleres Aktiv 149 / 137 40% 1 22.08.2028 -
Rodrigo Ribeiro Bayer Leverkusen Aktiv 144 / 138 40% 1 22.08.2028 -
Alieu Njie Torino Aktiv 132 / 146 40% 1 19.08.2028 -
Igor Serrote Al Ain Aktiv 135 / 134 40% 1 19.08.2028 -
Kevin Martins Monza Aktiv 112 / 123 40% 1 18.08.2028 -
Marco Pagliari Ternana Aktiv 115 / 114 40% 1 18.08.2028 -
Joël Piroe Leeds United Aktiv 139 / 146 40% 1 09.08.2028 -
Orazio Messina Torino Aktiv 141 / 139 40% 1 09.08.2028 -
Beto Napoli Aktiv 133 / 145 40% 2 06.08.2028 -
Roberto Piccoli Fiorentina Aktiv 137 / 149 40% 1 06.08.2028 -
Victor Torp Bristol Rovers Aktiv 131 / 135 40% 1 06.08.2028 -
Gianluca Scamacca Atalanta Aktiv 151 / 155 40% 1 04.08.2028 -
Róbert Boženík Stoke City Aktiv 141 / 134 40% 1 04.08.2028 -
Andrea Adorante Venezia Aktiv 138 / 138 40% 1 04.08.2028 -
Jayden Danns Bradford City Aktiv 146 / 139 40% 4 03.08.2028 -
Jarrod Bowen West Ham United Aktiv 169 / 161 40% 2 03.08.2028 -
Pablo Felipe West Ham United Aktiv 142 / 140 40% 1 03.08.2028 -
Damion Downs Southampton Aktiv 129 / 133 40% 1 01.08.2028 -
Abdoul Ouattara Port Vale Aktiv 129 / 141 40% 2 31.07.2028 -
Luca Williams-Barnett Walsall Aktiv 124 / 137 40% 1 31.07.2028 -
Reyes Cleary Bromley Aktiv 122 / 122 40% 3 29.07.2028 -
Ryan McAidoo Oldham Athletic Aktiv 131 / 126 40% 1 29.07.2028 -
Kyreece Lisbie Colchester United Aktiv 121 / 119 40% 2 28.07.2028 -
Gideon Kumar Luton Town Aktiv 123 / 130 40% 1 28.07.2028 -
Omar Khedr Gillingham Aktiv 114 / 118 40% 1 27.07.2028 -
Mohamed Touré Cardiff City Aktiv 122 / 134 40% 1 26.07.2028 -
Caylan Vickers Burton Albion Aktiv 127 / 124 40% 2 25.07.2028 -
Bradley Ibrahim Plymouth Argyle Aktiv 117 / 125 40% 1 25.07.2028 -
James Dornelly Peterborough United Aktiv 123 / 122 40% 1 25.07.2028 -
Tyler Goodrham Oxford United Aktiv 129 / 131 40% 2 23.07.2028 -
Sydie Peck Swindon Town Aktiv 131 / 138 40% 2 23.07.2028 -
Max Conway Bolton Wanderers Aktiv 129 / 122 40% 2 23.07.2028 -
Marcus Ifill Crewe Alexandra Aktiv 118 / 110 40% 1 22.07.2028 -
Seb Ferdinand Rotherham United Aktiv 122 / 129 40% 1 22.07.2028 -
Luciano Gondou Chelsea Aktiv 133 / 133 40% 1 19.07.2028 -
Boulaye Dia Lazio Aktiv 145 / 149 40% 1 19.07.2028 -
Keinan Davis Udinese Aktiv 137 / 143 40% 1 19.07.2028 -
Artem Dovbyk Hellas Verona Aktiv 141 / 150 40% 1 18.07.2028 -
Luke Baartman Ajax Cape Town Verloren 117 / 120 72% 1 03.07.2028 -
Nestory Irankunda Watford Aktiv 125 / 135 40% 1 03.07.2028 -
Callum O'Hare Sheffield United Aktiv 130 / 133 40% 1 26.06.2028 -
Gomolemo Kekana Maritzburg United Verloren 112 / 117 72% 1 12.06.2028 -
Sipho Chaine Orlando Pirates Aktiv 127 / 121 72% 1 07.06.2028 Befürworten
Lebone Seema Orlando Pirates Verloren 115 / 115 72% 1 06.06.2028 -
Teboho Zwane SuperSport United Verloren 117 / 121 72% 1 04.06.2028 -
Ryan Kavuma-McQueen Accrington Stanley Aktiv 110 / 130 40% 2 31.05.2028 -
Patrick Dorgu Bristol City Aktiv 141 / 157 40% 1 31.05.2028 -
Zion Suzuki Aston Villa Aktiv 155 / 150 40% 4 29.05.2028 -
Alexei Rojas Fedorushchenko Barrow AFC Aktiv 131 / 131 40% 2 29.05.2028 -
Radek Vítek Middlesbrough Aktiv 142 / 145 40% 3 29.05.2028 -
Yasin Ayari Middlesbrough Aktiv 143 / 155 40% 1 28.05.2028 -
Murphy Cooper Plymouth Argyle Aktiv 128 / 122 40% 4 26.05.2028 -
Joaquín Blázquez Talleres Aktiv 132 / 130 40% 4 26.05.2028 -
William Osula Wrexham Aktiv 145 / 133 40% 2 26.05.2028 -
Daniel Peretz Wolverhampton Aktiv 156 / 150 40% 3 26.05.2028 -
Filippo Rinaldi Parma Aktiv 130 / 132 40% 5 24.05.2028 -
Robin Roefs Sunderland Aktiv 144 / 153 40% 3 22.05.2028 -
Elia Caprile Cagliari Aktiv 160 / 150 40% 2 21.05.2028 -
Jakub Stolarczyk Middlesbrough Aktiv 155 / 147 40% 2 21.05.2028 -
Andrey Santos Bolton Wanderers Aktiv 142 / 154 40% 1 20.05.2028 -
Jack McGlynn Stoke City Aktiv 135 / 134 40% 2 19.05.2028 -
Ra'ees Bangura-Williams Millwall Aktiv 120 / 122 40% 2 19.05.2028 -
Mads Hermansen West Ham United Aktiv 152 / 141 40% 1 18.05.2028 -
Igor Tyjon Barrow AFC Aktiv 112 / 122 40% 2 16.05.2028 -
Kostantis Tzolakis Brighton Aktiv 145 / 149 40% 4 15.05.2028 -
Filip Marschall Stevenage Aktiv 121 / 127 40% 1 15.05.2028 -
Oliver Dovin Coventry City Aktiv 131 / 137 40% 2 14.05.2028 -
Ilyas Ansah Hull City Aktiv 134 / 136 40% 2 13.05.2028 -
Semuel Pizzignacco Monza Aktiv 135 / 131 40% 3 09.05.2028 -
Calvin Ramsay Bristol Rovers Aktiv 116 / 126 40% 2 07.05.2028 -
Filip Jörgensen Chelsea Aktiv 171 / 160 40% 1 07.05.2028 -
Guilherme Fernandes Valencia Aktiv 146 / 144 40% 1 07.05.2028 -
Toby Collyer West Bromwich Albion Aktiv 131 / 142 40% 1 07.05.2028 -
Ibrahim Fullah Charlton Athletic Aktiv 119 / 131 40% 1 06.05.2028 -
Stanley Mills Crewe Alexandra Aktiv 135 / 123 40% 2 04.05.2028 -
Matěj Jurásek Doncaster Rovers Aktiv 131 / 132 40% 2 04.05.2028 -
Tyreece Campbell Charlton Athletic Aktiv 127 / 127 40% 2 04.05.2028 -
Sol Brynn Bradford City Aktiv 133 / 138 40% 1 02.05.2028 -
Antonín Kinský Tottenham Aktiv 150 / 154 40% 1 02.05.2028 -
Jay Gorter Pafos Aktiv 140 / 133 40% 4 01.05.2028 -
Shea Charles Southampton Aktiv 146 / 151 40% 3 01.05.2028 -
Stanislav Agkatsev Brentford Aktiv 153 / 150 40% 2 01.05.2028 -
Jonas Urbig Bayern Munich Aktiv 167 / 152 40% 3 01.05.2028 -
Lukáš Horníček Burnley Aktiv 153 / 159 40% 3 28.04.2028 -
Max Johnston Derby County Aktiv 137 / 139 40% 1 27.04.2028 -
Pierce Charles Manchester City Aktiv 142 / 134 40% 1 27.04.2028 -
Lucas Chevalier AC Milan Aktiv 169 / 166 40% 1 23.04.2028 -
Honest Ahanor Atalanta Aktiv 145 / 141 40% 1 23.04.2028 -
Melker Ellborg Sunderland Aktiv 129 / 135 40% 1 21.04.2028 -
Jacques Ekomié Wrexham Aktiv 139 / 143 40% 1 18.04.2028 -
Ben Gannon Doak Charlton Athletic Aktiv 156 / 151 40% 3 15.04.2028 -
Ar'jany Martha Rotherham United Aktiv 110 / 120 40% 2 14.04.2028 -
Hákon Rafn Valdimarsson Southampton Aktiv 156 / 150 40% 1 13.04.2028 -
Andre Brooks Sheffield United Aktiv 135 / 141 40% 1 11.04.2028 -
Jhon Solís Birmingham Aktiv 131 / 133 40% 1 09.04.2028 -
Josh Keeley Luton Town Aktiv 146 / 141 40% 1 09.04.2028 -
Arthur Okonkwo Wrexham Aktiv 123 / 127 40% 1 05.04.2028 -
Filip Stanković Lazio Aktiv 147 / 144 40% 1 30.03.2028 -
Ander Astralaga Newcastle United Aktiv 132 / 138 40% 1 29.03.2028 -
Franco Israel Hellas Verona Aktiv 146 / 141 40% 1 27.03.2028 -
Giorgi Mamardashvili Liverpool Aktiv 169 / 163 40% 1 19.03.2028 -
James Trafford Leeds United Aktiv 156 / 156 40% 1 16.03.2028 -
Bradley Zwane SuperSport United Aktiv 115 / 123 72% 1 04.01.2028 Befürworten
Morgan Billiat SuperSport United Aktiv 116 / 121 72% 1 03.01.2028 Befürworten
Alexandre Oukidja SuperSport United Aktiv 120 / 125 69% 1 23.08.2027 Befürworten